createdAt,value
2022-11-06T00:09:22.899Z,4.80
2022-11-06T00:19:24.259Z,4.73
2022-11-06T00:29:25.654Z,4.58
2022-11-06T00:39:27.072Z,4.48
2022-11-06T00:49:28.415Z,4.45
2022-11-06T00:59:29.789Z,4.47
2022-11-06T01:09:31.220Z,4.40
2022-11-06T01:19:32.595Z,4.24
2022-11-06T01:29:33.988Z,4.19
2022-11-06T01:39:35.361Z,4.10
2022-11-06T01:49:36.752Z,4.14
2022-11-06T01:59:38.139Z,4.16
2022-11-06T02:09:39.542Z,4.14
2022-11-06T02:19:40.964Z,4.37
2022-11-06T02:29:42.896Z,4.59
2022-11-06T02:39:44.298Z,4.59
2022-11-06T02:49:45.660Z,4.55
2022-11-06T02:59:47.098Z,4.32
2022-11-06T03:09:48.445Z,4.25
2022-11-06T03:19:49.834Z,4.14
2022-11-06T03:29:51.235Z,4.18
2022-11-06T03:39:52.658Z,4.25
2022-11-06T03:49:54.000Z,4.42
2022-11-06T03:59:55.388Z,4.46
2022-11-06T04:10:15.296Z,4.39
2022-11-06T04:20:36.639Z,4.18
2022-11-06T04:30:38.028Z,3.86
2022-11-06T04:40:39.409Z,3.91
2022-11-06T04:50:41.086Z,3.96
2022-11-06T05:00:42.487Z,4.14
2022-11-06T05:10:43.897Z,4.00
2022-11-06T05:20:45.241Z,3.98
2022-11-06T05:30:46.621Z,3.79
2022-11-06T05:40:47.965Z,3.74
2022-11-06T05:50:49.365Z,3.60
2022-11-06T06:00:50.697Z,3.68
2022-11-06T06:10:52.070Z,3.74
2022-11-06T06:20:53.456Z,3.95
2022-11-06T06:31:01.010Z,4.04
2022-11-06T06:41:02.948Z,4.21
2022-11-06T06:51:05.052Z,4.36
2022-11-06T07:01:06.576Z,4.24
2022-11-06T07:11:07.981Z,3.93
2022-11-06T07:21:09.392Z,3.85
2022-11-06T07:31:13.120Z,3.88
2022-11-06T07:41:14.530Z,3.99
2022-11-06T07:51:15.873Z,4.05
2022-11-06T08:01:18.964Z,4.21
2022-11-06T08:11:20.571Z,4.09
2022-11-06T08:21:21.816Z,4.26
2022-11-06T08:31:23.195Z,4.38
2022-11-06T08:41:24.589Z,4.76
2022-11-06T08:51:25.954Z,4.84
2022-11-06T09:01:27.682Z,5.18
2022-11-06T09:11:29.185Z,5.16
2022-11-06T09:21:30.600Z,5.45
2022-11-06T09:31:32.154Z,5.74
2022-11-06T09:41:33.500Z,6.08
2022-11-06T09:51:34.951Z,6.78
2022-11-06T10:01:36.928Z,7.12
2022-11-06T10:11:38.422Z,6.97
2022-11-06T10:21:39.855Z,7.20
2022-11-06T10:31:41.250Z,7.10
2022-11-06T10:41:42.636Z,7.62
2022-11-06T10:51:44.029Z,7.79
2022-11-06T11:01:45.520Z,8.07
2022-11-06T11:11:46.955Z,7.93
2022-11-06T11:21:48.213Z,7.81
2022-11-06T11:31:49.576Z,8.15
2022-11-06T11:41:51.010Z,8.38
2022-11-06T11:51:52.407Z,8.53
2022-11-06T12:01:53.851Z,8.75
2022-11-06T12:11:55.362Z,8.99
2022-11-06T12:21:56.776Z,9.05
2022-11-06T12:31:58.188Z,9.14
2022-11-06T12:41:59.565Z,9.14
2022-11-06T12:52:00.809Z,9.24
2022-11-06T13:02:02.112Z,9.33
2022-11-06T13:12:03.604Z,9.34
2022-11-06T13:22:05.200Z,9.11
2022-11-06T13:32:06.736Z,9.17
2022-11-06T13:42:07.988Z,9.19
2022-11-06T13:52:09.373Z,9.19
2022-11-06T14:02:11.069Z,9.23
2022-11-06T14:12:15.130Z,9.27
2022-11-06T14:22:16.919Z,9.39
2022-11-06T14:32:18.374Z,9.17
2022-11-06T14:42:22.905Z,8.95
2022-11-06T14:52:28.082Z,8.82
2022-11-06T15:02:29.524Z,8.64
2022-11-06T15:12:30.944Z,8.54
2022-11-06T15:22:32.199Z,8.44
2022-11-06T15:32:33.551Z,8.28
2022-11-06T15:42:34.947Z,8.19
2022-11-06T15:52:36.398Z,8.16
2022-11-06T16:02:38.036Z,8.13
2022-11-06T16:12:39.428Z,8.06
2022-11-06T16:22:40.822Z,8.02
2022-11-06T16:32:43.515Z,7.92
2022-11-06T16:42:44.922Z,7.92
2022-11-06T16:52:46.277Z,7.92
2022-11-06T17:02:47.903Z,7.90
2022-11-06T17:12:49.400Z,7.95
2022-11-06T17:22:50.992Z,7.92
2022-11-06T17:32:52.408Z,7.85
2022-11-06T17:42:53.776Z,7.74
2022-11-06T17:52:55.167Z,7.82
2022-11-06T18:03:01.419Z,7.88
2022-11-06T18:13:03.237Z,7.93
2022-11-06T18:23:04.573Z,7.96
2022-11-06T18:33:05.977Z,8.02
2022-11-06T18:43:07.377Z,8.01
2022-11-06T18:53:08.963Z,8.02
2022-11-06T19:03:11.814Z,8.06
2022-11-06T19:13:13.258Z,8.05
2022-11-06T19:23:14.845Z,8.06
2022-11-06T19:33:16.690Z,8.14
2022-11-06T19:43:18.239Z,8.14
2022-11-06T19:53:19.606Z,8.17
2022-11-06T20:03:21.013Z,8.25
2022-11-06T20:13:22.346Z,8.27
2022-11-06T20:23:23.804Z,8.32
2022-11-06T20:33:25.214Z,8.38
2022-11-06T20:43:26.471Z,8.52
2022-11-06T20:53:27.698Z,8.79
2022-11-06T21:03:28.991Z,8.70
2022-11-06T21:13:30.389Z,8.60
2022-11-06T21:23:31.795Z,8.50
2022-11-06T21:33:33.161Z,8.45
2022-11-06T21:43:34.423Z,8.45
2022-11-06T21:53:54.705Z,8.53
2022-11-06T22:03:56.091Z,8.54
2022-11-06T22:13:57.507Z,8.67
2022-11-06T22:23:58.937Z,8.82
2022-11-06T22:34:00.426Z,8.81
2022-11-06T22:44:02.027Z,8.80
2022-11-06T22:54:03.521Z,8.82
2022-11-06T23:04:05.030Z,8.86
2022-11-06T23:14:09.065Z,8.86
2022-11-06T23:24:10.974Z,8.89
2022-11-06T23:34:12.388Z,8.90
2022-11-06T23:44:32.487Z,8.93
2022-11-06T23:54:33.982Z,8.94
